Latest Coastal Weather Observations for Norah Head

IDN60701

Issued at 5:42 pm EST Saturday 20 April 2024 (issued every 10 minutes, with the page automatically refreshed every 10 minutes)

About coastal observations | Map of coastal stations | Coastal observations for NSW | Marine services | Other Formats
Station Details ID: 061366 Name: NORAH HEAD AWS Lat: -33.28 Lon: 151.58 Height: 18.8 m
Data from the previous 72 hours. | See also: Recent months at Norah Head
Date/Time
EST
Wind Sea
Height
m
Swell Vis
km
Cloud Weather Temp
°C
Press
MSL
hPa
Rain since
9am
mm
Dir  Spd
kts
Gust
kts
Height
m
Period
s
Dir
20/05:35pm SE 18 28 - - - - - - - 17.1 1024.1 17.4
20/05:30pm SE 22 29 - - - - - - - 17.4 1024.1 15.6
20/05:16pm SSE 21 31 - - - - - - - 18.0 1023.8 14.6
20/05:00pm S 28 33 - - - - - - - 19.4 1023.2 14.6
20/04:30pm S 21 29 - - - - - - - 19.5 1023.3 14.6
20/04:00pm S 21 27 - - - - - - - 18.7 1023.2 14.6
20/03:47pm S 15 25 - - - - - - - 18.6 1023.2 14.6
20/03:30pm SE 8 14 - - - - - - - 17.2 1023.6 14.6
20/03:00pm S 11 18 - - - - - - Rain 17.1 1023.6 11.2
20/02:30pm SSE 23 28 - - - - - - - 17.8 1022.9 6.4
20/02:11pm S 18 26 - - - - - - - 18.9 1022.5 6.0
20/02:00pm SSW 18 24 - - - - - - - 19.1 1022.8 6.0
20/01:30pm S 18 24 - - - - - - - 17.9 1022.7 6.0
20/01:00pm SSW 21 29 - - - - - - - 18.3 1022.4 5.8
20/12:55pm SSW 15 29 - - - - - - - 18.5 1022.4 5.4
20/12:30pm SSW 17 23 - - - - - - - 18.0 1022.9 3.4
20/12:01pm SSW 18 30 - - - - - - - 18.3 1022.9 2.6
20/12:00pm SSW 20 30 - - - - - - Recent precip. 18.3 1022.9 2.6
20/11:30am SSW 20 29 - - - - - - - 19.0 1022.9 2.0
20/11:00am S 24 30 - - - - - - - 19.2 1022.9 2.0
20/10:31am SSW 19 29 - - - - - - - 18.1 1023.3 1.4
20/10:30am SSW 20 29 - - - - - - - 17.8 1023.3 1.4
20/10:00am SSW 22 29 - - - - - - - 19.1 1022.7 0.6
20/09:44am SSW 19 30 - - - - - - - 18.7 1022.4 0.6
20/09:30am SSW 17 24 - - - - - - - 18.7 1022.4 0.6
20/09:19am SSW 15 25 - - - - - - - 18.4 1022.5 0.0
20/09:00am S 11 21 - - - - - - Rain 17.5 1022.3 120.8
20/08:30am SW 6 13 - - - - - - - 16.5 1022.8 119.4
20/08:00am WSW 9 13 - - - - - - - 16.0 1022.2 112.6
20/07:30am W 6 11 - - - - - - - 15.5 1022.0 112.6
20/07:00am W 6 10 - - - - - - - 15.3 1021.8 111.2
20/06:30am WSW 6 11 - - - - - - - 15.2 1021.8 109.6
20/06:00am SW 7 15 - - - - - - Rain 15.1 1021.4 108.0
20/05:30am SW 7 12 - - - - - - - 15.1 1021.2 106.0
20/05:00am SW 6 11 - - - - - - - 14.9 1021.2 103.4
20/04:30am SW 6 11 - - - - - - - 15.0 1021.1 100.4
20/04:00am W 6 13 - - - - - - - 15.0 1020.7 95.4
20/03:30am W 5 10 - - - - - - - 15.2 1020.6 81.4
20/03:00am SW 7 11 - - - - - - Rain 15.9 1020.7 72.8
20/02:30am SW 7 15 - - - - - - - 16.0 1020.8 69.0
20/02:00am WSW 6 9 - - - - - - - 15.5 1020.9 67.6
20/01:30am WSW 6 9 - - - - - - - 15.3 1021.2 63.0
20/01:00am WSW 6 10 - - - - - - - 15.6 1021.0 48.8
20/12:30am WSW 5 8 - - - - - - - 15.2 1020.8 46.2
20/12:00am WSW 4 7 - - - - - - Rain 15.6 1020.8 33.4
 
Date/Time
EST
Wind Sea
Height
m
Swell Vis
km
Cloud Weather Temp
°C
Press
MSL
hPa
Rain since
9am
mm
Dir  Spd
kts
Gust
kts
Height
m
Period
s
Dir
19/11:30pm WSW 7 11 - - - - - - - 15.7 1020.8 29.8
19/11:00pm WSW 8 11 - - - - - - - 16.2 1020.3 28.0
19/10:30pm W 6 10 - - - - - - - 16.5 1020.6 27.6
19/10:00pm SW 10 18 - - - - - - - 17.7 1020.8 27.6
19/09:30pm S 16 21 - - - - - - - 18.6 1020.6 27.6
19/09:00pm S 20 26 - - - - - - Recent precip. 18.1 1020.4 27.2
19/08:30pm S 18 24 - - - - - - - 18.3 1020.1 26.8
19/08:00pm S 18 24 - - - - - - - 18.1 1019.7 26.2
19/07:30pm SSE 18 24 - - - - - - - 17.4 1019.6 25.2
19/07:00pm S 21 28 - - - - - - - 17.3 1019.1 21.6
19/06:56pm S 15 28 - - - - - - - 17.1 1019.1 21.0
19/06:30pm SW 10 18 - - - - - - - 16.5 1019.4 19.6
19/06:17pm ESE 17 33 - - - - - - - 17.1 1019.0 13.6
19/06:15pm ESE 19 36 - - - - - - - 17.2 1019.0 13.0
19/06:04pm SE 23 37 - - - - - - - 17.9 1018.3 1.0
19/06:00pm SSE 21 26 - - - - - - - 18.3 1018.5 0.2
19/05:48pm S 16 24 - - - - - - - 19.7 1018.4 0.2
19/05:30pm SSW 14 20 - - - - - - - 19.6 1018.2 0.2
19/05:00pm S 12 18 - - - - - - - 19.6 1018.0 0.2
19/04:30pm S 13 18 - - - - - - - 19.7 1017.8 0.2
19/04:00pm S 10 15 - - - - - - - 19.6 1017.4 0.2
19/03:30pm S 11 16 - - - - - - - 19.7 1017.3 0.2
19/03:00pm S 11 16 - - - - - - - 19.5 1016.9 0.2
19/02:30pm SSW 12 16 - - - - - - - 19.8 1016.6 0.2
19/02:00pm S 11 16 - - - - - - - 20.0 1016.6 0.2
19/01:30pm S 13 17 - - - - - - - 19.6 1016.2 0.2
19/01:00pm S 12 15 - - - - - - - 20.2 1016.1 0.2
19/12:30pm S 10 12 - - - - - - - 20.3 1016.2 0.2
19/12:00pm SSW 9 13 - - - - - - Recent precip. 20.8 1016.4 0.2
19/11:30am SSW 7 10 - - - - - - - 20.4 1016.7 0.2
19/11:00am SW 7 12 - - - - - - - 20.1 1017.1 0.0
19/10:30am SW 6 11 - - - - - - - 19.5 1016.9 0.0
19/10:00am SW 4 7 - - - - - - - 19.3 1016.7 0.0
19/09:30am WSW 5 9 - - - - - - - 18.1 1016.7 0.0
19/09:00am WSW 5 9 - - - - - - - 17.0 1016.4 1.0
19/08:30am W 4 8 - - - - - - - 16.8 1016.4 1.0
19/08:00am W 6 9 - - - - - - - 16.3 1016.2 1.0
19/07:30am WNW 4 8 - - - - - - - 14.8 1016.0 1.0
19/07:00am W 4 7 - - - - - - - 14.8 1015.6 1.0
19/06:30am W 5 8 - - - - - - - 14.1 1015.4 1.0
19/06:00am W 5 7 - - - - - - - 14.2 1015.2 1.0
19/05:30am W 5 7 - - - - - - - 14.5 1014.9 1.0
19/05:00am W 6 8 - - - - - - - 14.7 1014.5 1.0
19/04:30am W 6 8 - - - - - - - 15.2 1014.5 1.0
19/04:00am WSW 4 7 - - - - - - - 15.2 1014.5 1.0
19/03:30am W 5 6 - - - - - - - 15.5 1014.4 1.0
19/03:00am W 6 8 - - - - - - - 15.9 1014.4 1.0
19/02:30am W 6 8 - - - - - - - 16.0 1014.4 1.0
19/02:00am W 6 10 - - - - - - - 16.0 1014.7 1.0
19/01:30am W 6 9 - - - - - - - 16.1 1015.0 1.0
19/01:00am W 6 9 - - - - - - - 16.2 1015.0 1.0
19/12:30am W 6 8 - - - - - - - 16.5 1014.9 1.0
19/12:00am W 6 8 - - - - - - - 16.5 1015.1 0.8
 
Date/Time
EST
Wind Sea
Height
m
Swell Vis
km
Cloud Weather Temp
°C
Press
MSL
hPa
Rain since
9am
mm
Dir  Spd
kts
Gust
kts
Height
m
Period
s
Dir
18/11:30pm W 7 10 - - - - - - - 16.6 1015.1 0.8
18/11:00pm W 6 8 - - - - - - - 16.6 1015.3 0.8
18/10:30pm W 7 9 - - - - - - - 16.8 1015.3 0.8
18/10:00pm W 6 8 - - - - - - - 17.0 1015.4 0.8
18/09:30pm W 6 9 - - - - - - - 17.3 1015.3 0.8
18/09:00pm W 7 8 - - - - - - - 17.5 1015.2 0.8
18/08:30pm W 6 8 - - - - - - - 17.7 1015.1 0.8
18/08:00pm W 5 7 - - - - - - - 18.1 1015.1 0.8
18/07:30pm WSW 3 7 - - - - - - - 18.6 1014.9 0.8
18/07:00pm SSW 5 8 - - - - - - - 19.6 1014.8 0.8
18/06:30pm S 7 11 - - - - - - - 19.2 1014.4 0.8
18/06:00pm SSE 15 18 - - - - - - Thunderstorm 19.6 1013.9 0.8
18/05:30pm SSE 14 20 - - - - - - - 20.1 1014.0 0.8
18/05:00pm SE 14 17 - - - - - - - 19.8 1013.4 0.8
18/04:39pm SSE 8 12 - - - - - - - 20.7 1013.6 0.8
18/04:30pm SSE 4 7 - - - - - - - 20.8 1013.7 0.8
18/04:04pm SE 5 7 - - - - - - - 20.6 1013.6 0.8
18/04:00pm ESE 6 8 - - - - - - - 20.9 1013.6 0.8
18/03:59pm ESE 6 9 - - - - - - - 20.9 1013.6 0.8
18/03:49pm ESE 7 9 - - - - - - - 21.1 1013.4 0.8
18/03:30pm SE 9 11 - - - - - - - 21.8 1013.4 0.8
18/03:00pm SE 9 11 - - - - - - - 22.5 1013.6 0.8
18/02:30pm SSE 8 10 - - - - - - - 21.6 1014.0 0.8
18/02:00pm SSE 11 13 - - - - - - - 22.5 1014.1 0.8
18/01:30pm SSE 8 10 - - - - - - - 22.2 1014.3 0.8
18/01:00pm S 8 11 - - - - - - - 22.4 1014.7 0.8
18/12:30pm S 6 9 - - - - - - - 22.6 1015.0 0.8
18/12:00pm SSW 2 4 - - - - - - Rain 22.7 1015.8 0.8
18/11:30am W 2 4 - - - - - - - 21.2 1016.2 0.6
18/11:00am NNW 3 6 - - - - - - - 19.6 1016.8 0.6
18/10:30am NNW 3 7 - - - - - - - 19.1 1017.3 0.6
18/10:00am NW 4 6 - - - - - - - 18.8 1017.6 0.6
18/09:30am SW 2 5 - - - - - - - 18.1 1017.9 0.6
18/09:00am WSW 2 5 - - - - - - Rain 17.6 1018.4 1.2
18/08:30am W 5 9 - - - - - - - 18.1 1018.7 0.2
18/08:00am W 5 9 - - - - - - - 17.7 1018.5 0.2
18/07:30am WNW 4 7 - - - - - - - 18.1 1018.1 0.2
18/07:00am NW 3 5 - - - - - - - 17.8 1017.8 0.2
18/06:30am WNW 3 5 - - - - - - - 17.3 1017.6 0.2
18/06:00am WNW 4 6 - - - - - - - 17.3 1017.6 0.2
18/05:30am WNW 4 7 - - - - - - - 17.4 1017.3 0.2
18/05:00am W 5 6 - - - - - - - 17.7 1017.5 0.2
18/04:30am W 5 9 - - - - - - - 17.7 1017.7 0.2
18/04:00am W 5 7 - - - - - - - 17.6 1017.8 0.2
18/03:30am WSW 5 6 - - - - - - - 17.7 1017.9 0.2
18/03:00am SW 4 6 - - - - - - - 17.8 1018.3 0.2
18/02:30am WSW 5 8 - - - - - - - 17.9 1018.7 0.2
18/02:00am SW 4 7 - - - - - - - 18.0 1018.8 0.2
18/01:30am WSW 6 8 - - - - - - - 18.5 1018.8 0.2
18/01:00am WSW 5 7 - - - - - - - 18.8 1019.2 0.2
18/12:30am W 6 8 - - - - - - - 19.4 1019.5 0.2
18/12:00am WSW 4 5 - - - - - - - 19.7 1019.6 0.2
 
Date/Time
EST
Wind Sea
Height
m
Swell Vis
km
Cloud Weather Temp
°C
Press
MSL
hPa
Rain since
9am
mm
Dir  Spd
kts
Gust
kts
Height
m
Period
s
Dir
17/11:30pm WSW 6 8 - - - - - - - 19.6 1020.0 0.2
17/11:00pm W 6 9 - - - - - - - 19.9 1020.5 0.2
17/10:30pm W 4 6 - - - - - - - 20.2 1020.9 0.2
17/10:00pm WNW 4 6 - - - - - - - 20.5 1020.8 0.2
17/09:30pm WNW 2 3 - - - - - - - 20.5 1021.1 0.2
17/09:00pm WNW 3 5 - - - - - - - 21.1 1021.2 0.2
17/08:30pm E 3 4 - - - - - - - 21.2 1021.1 0.2
17/08:00pm E 2 4 - - - - - - - 21.2 1021.0 0.2
17/07:30pm SSE 2 3 - - - - - - - 21.2 1021.2 0.2
17/07:00pm ESE 3 4 - - - - - - - 21.3 1021.2 0.2
17/06:30pm E 3 4 - - - - - - - 21.1 1021.1 0.2
17/06:00pm ENE 3 4 - - - - - - - 20.9 1021.0 0.2

Other formats

Comma delimited format used in spreadsheet applications
http://www.bom.gov.au/fwo/IDN60701/IDN60701.95770.axf

JavaScript Object Notation format (JSON) in row-major order
http://www.bom.gov.au/fwo/IDN60701/IDN60701.95770.json

Data quality

Most of these data are generated automatically and are frequently updated. Quality checks on data are not normally performed. It is possible for incorrect values to appear. Refer to information at About Latest Weather Observations and please check the disclaimer before using these data.